Time;durP1;ratioP1;P1;durP2;ratioP2;P2;SDS_P1;SDS_P2;PMS_P1;PMS_P2;Temp;Humidity;BMP_temperature;BMP_pressure;BME280_temperature;BME280_humidity;BME280_pressure;Samples;Min_cycle;Max_cycle;Signal;HPM_P1;HPM_P2
2022/05/01 00:00:13;;;;;;;19.63;14.87;;;;;;;;;;5093343;28;20574;-69
2022/05/01 00:02:40;;;;;;;17.60;13.60;;;;;;;;;;5093643;28;20843;-68
2022/05/01 00:05:09;;;;;;;20.50;15.67;;;;;;;;;;5093337;28;20852;-68
2022/05/01 00:07:36;;;;;;;16.97;12.53;;;;;;;;;;5093432;28;20458;-68
2022/05/01 00:10:04;;;;;;;17.90;13.60;;;;;;;;;;5093388;28;20468;-68
2022/05/01 00:12:31;;;;;;;21.10;15.37;;;;;;;;;;5093396;28;20455;-68
2022/05/01 00:14:58;;;;;;;19.40;13.73;;;;;;;;;;5093321;28;20466;-68
2022/05/01 00:17:25;;;;;;;18.97;14.77;;;;;;;;;;5093345;28;20465;-70
2022/05/01 00:19:54;;;;;;;19.20;14.40;;;;;;;;;;5093142;28;20991;-69
2022/05/01 00:22:23;;;;;;;21.03;16.30;;;;;;;;;;5092899;28;20482;-68
2022/05/01 00:24:50;;;;;;;22.83;16.20;;;;;;;;;;5093095;28;20832;-68
2022/05/01 00:27:17;;;;;;;16.20;13.60;;;;;;;;;;5093067;28;20873;-68
2022/05/01 00:29:44;;;;;;;19.00;14.63;;;;;;;;;;5092465;28;20502;-70
2022/05/01 00:32:11;;;;;;;19.43;14.43;;;;;;;;;;5092986;28;20446;-71
2022/05/01 00:37:24;;;;;;;20.00;14.17;;;;;;;;;;5093150;28;20800;-70
2022/05/01 00:39:51;;;;;;;16.10;13.70;;;;;;;;;;5092928;28;20493;-69
2022/05/01 00:42:19;;;;;;;14.50;12.83;;;;;;;;;;5093107;28;20450;-69
2022/05/01 00:44:46;;;;;;;17.07;13.30;;;;;;;;;;5092956;28;20943;-69
2022/05/01 00:47:13;;;;;;;19.50;14.47;;;;;;;;;;5092880;28;20462;-69
2022/05/01 00:49:40;;;;;;;17.30;14.50;;;;;;;;;;5093088;28;20462;-69
2022/05/01 00:52:09;;;;;;;18.27;14.17;;;;;;;;;;5092878;28;20450;-69
2022/05/01 00:54:39;;;;;;;14.97;12.80;;;;;;;;;;5092808;28;20576;-69
2022/05/01 00:57:07;;;;;;;18.90;14.47;;;;;;;;;;5092797;28;20455;-69
2022/05/01 00:59:35;;;;;;;19.77;14.70;;;;;;;;;;5092695;28;20909;-69
2022/05/01 01:02:02;;;;;;;17.07;13.50;;;;;;;;;;5092770;28;20462;-69
2022/05/01 01:04:29;;;;;;;16.33;12.30;;;;;;;;;;5092818;28;20962;-69
2022/05/01 01:06:56;;;;;;;19.50;13.93;;;;;;;;;;5092876;28;20455;-69
2022/05/01 01:09:23;;;;;;;16.77;13.10;;;;;;;;;;5092824;28;20459;-69
2022/05/01 01:12:53;;;;;;;15.43;12.20;;;;;;;;;;5092759;28;20454;-69
2022/05/01 01:14:40;;;;;;;17.03;13.23;;;;;;;;;;5092608;28;20449;-69
2022/05/01 01:17:07;;;;;;;15.50;12.00;;;;;;;;;;5092882;28;20555;-69
2022/05/01 01:19:34;;;;;;;16.23;12.30;;;;;;;;;;5092573;28;20505;-69
2022/05/01 01:22:04;;;;;;;15.20;13.00;;;;;;;;;;5092224;28;20450;-68
2022/05/01 01:24:31;;;;;;;19.67;13.10;;;;;;;;;;5092375;28;20981;-68
2022/05/01 01:26:58;;;;;;;16.83;13.10;;;;;;;;;;5092657;28;20462;-69
2022/05/01 01:32:10;;;;;;;22.17;13.37;;;;;;;;;;5092762;28;20473;-68
2022/05/01 01:34:39;;;;;;;16.50;12.97;;;;;;;;;;5092709;28;20823;-68
2022/05/01 01:37:08;;;;;;;18.77;14.37;;;;;;;;;;5092531;28;20450;-69
2022/05/01 01:39:35;;;;;;;19.93;14.10;;;;;;;;;;5092502;28;20495;-69
2022/05/01 01:42:05;;;;;;;15.17;12.13;;;;;;;;;;5094561;28;20453;-69
2022/05/01 01:44:33;;;;;;;15.50;12.30;;;;;;;;;;5096248;28;20450;-69
2022/05/01 01:47:00;;;;;;;14.70;11.47;;;;;;;;;;5096274;28;20453;-70
2022/05/01 01:49:27;;;;;;;16.63;12.90;;;;;;;;;;5096197;28;20820;-71
2022/05/01 01:51:54;;;;;;;17.90;13.67;;;;;;;;;;5096174;28;20830;-68
2022/05/01 01:54:24;;;;;;;14.43;12.37;;;;;;;;;;5096424;28;20446;-68
2022/05/01 01:56:52;;;;;;;16.10;12.70;;;;;;;;;;5096440;28;20492;-68
2022/05/01 01:59:19;;;;;;;14.80;10.83;;;;;;;;;;5095889;28;20497;-68
2022/05/01 02:01:46;;;;;;;14.60;11.00;;;;;;;;;;5095930;28;20450;-68
2022/05/01 02:04:13;;;;;;;14.20;11.63;;;;;;;;;;5095825;28;20458;-68
2022/05/01 02:06:40;;;;;;;15.13;11.77;;;;;;;;;;5095968;28;20462;-68
2022/05/01 02:09:07;;;;;;;16.03;12.20;;;;;;;;;;5095729;28;20467;-68
2022/05/01 02:11:36;;;;;;;14.53;11.60;;;;;;;;;;5095739;28;20450;-68
2022/05/01 02:14:05;;;;;;;17.13;12.97;;;;;;;;;;5095556;28;20524;-68
2022/05/01 02:16:32;;;;;;;13.80;12.03;;;;;;;;;;5095665;28;20454;-68
2022/05/01 02:18:59;;;;;;;16.10;11.37;;;;;;;;;;5095392;28;20474;-68
2022/05/01 02:21:35;;;;;;;14.77;10.60;;;;;;;;;;5095631;28;20475;-68
2022/05/01 02:24:03;;;;;;;13.10;10.60;;;;;;;;;;5095324;28;20462;-68
2022/05/01 02:26:30;;;;;;;14.30;11.17;;;;;;;;;;5095561;28;20457;-68
2022/05/01 02:28:59;;;;;;;14.13;12.63;;;;;;;;;;5095383;28;20884;-68
2022/05/01 02:31:27;;;;;;;13.47;11.60;;;;;;;;;;5095260;28;20529;-68
2022/05/01 02:33:54;;;;;;;13.57;11.57;;;;;;;;;;5095131;28;20491;-68
2022/05/01 02:36:21;;;;;;;15.40;12.27;;;;;;;;;;5095269;28;20454;-69
2022/05/01 02:38:49;;;;;;;13.90;11.10;;;;;;;;;;5095203;28;20474;-69
2022/05/01 02:41:18;;;;;;;16.20;11.73;;;;;;;;;;5095232;28;20843;-68
2022/05/01 02:43:46;;;;;;;14.43;12.53;;;;;;;;;;5095245;28;20507;-68
2022/05/01 02:46:15;;;;;;;15.87;11.93;;;;;;;;;;5095101;28;20500;-68
2022/05/01 02:48:42;;;;;;;17.60;11.90;;;;;;;;;;5094988;28;20475;-68
2022/05/01 02:51:10;;;;;;;16.90;11.80;;;;;;;;;;5095015;28;20443;-68
2022/05/01 02:53:38;;;;;;;16.30;12.40;;;;;;;;;;5094306;28;20508;-68
2022/05/01 02:56:05;;;;;;;16.30;12.60;;;;;;;;;;5094766;28;20504;-69
2022/05/01 02:58:32;;;;;;;16.87;12.47;;;;;;;;;;5094867;28;20455;-69
2022/05/01 03:01:00;;;;;;;13.70;11.40;;;;;;;;;;5094927;28;20502;-68
2022/05/01 03:03:29;;;;;;;12.60;10.90;;;;;;;;;;5094661;28;20486;-70
2022/05/01 03:05:58;;;;;;;15.10;11.40;;;;;;;;;;5094590;28;20443;-68
2022/05/01 03:08:26;;;;;;;15.93;11.97;;;;;;;;;;5094569;28;20446;-69
2022/05/01 03:10:53;;;;;;;16.10;11.40;;;;;;;;;;5094622;28;20439;-69
2022/05/01 03:13:20;;;;;;;18.90;13.20;;;;;;;;;;5094590;28;20454;-68
2022/05/01 03:15:47;;;;;;;16.07;11.53;;;;;;;;;;5094266;28;20453;-69
2022/05/01 03:23:46;;;;;;;17.80;13.20;;;;;;;;;;5093928;28;20458;-69
2022/05/01 03:26:13;;;;;;;17.20;13.53;;;;;;;;;;5094180;28;20462;-69
2022/05/01 03:28:40;;;;;;;17.03;12.70;;;;;;;;;;5094250;28;20857;-68
2022/05/01 03:31:09;;;;;;;15.73;12.47;;;;;;;;;;5094347;28;20818;-68
2022/05/01 03:33:36;;;;;;;16.73;12.73;;;;;;;;;;5094108;28;20492;-69
2022/05/01 03:36:06;;;;;;;13.93;11.37;;;;;;;;;;5094098;28;20457;-69
2022/05/01 03:38:33;;;;;;;16.63;12.43;;;;;;;;;;5094192;28;20478;-68
2022/05/01 03:41:01;;;;;;;13.27;10.50;;;;;;;;;;5093795;28;20486;-69
2022/05/01 03:43:28;;;;;;;15.93;12.53;;;;;;;;;;5094041;28;20861;-70
2022/05/01 03:45:55;;;;;;;14.63;12.03;;;;;;;;;;5093918;28;20474;-69
2022/05/01 03:48:22;;;;;;;16.27;12.77;;;;;;;;;;5094116;28;20545;-69
2022/05/01 03:50:52;;;;;;;13.27;11.13;;;;;;;;;;5094077;28;20454;-69
2022/05/01 03:53:20;;;;;;;15.17;11.23;;;;;;;;;;5093955;28;20952;-69
2022/05/01 03:55:47;;;;;;;17.23;12.30;;;;;;;;;;5093652;28;20451;-69
2022/05/01 03:58:15;;;;;;;15.80;11.30;;;;;;;;;;5093714;28;20450;-69
2022/05/01 04:00:44;;;;;;;15.27;11.70;;;;;;;;;;5093562;28;20497;-69
2022/05/01 04:03:11;;;;;;;13.27;10.80;;;;;;;;;;5093535;28;20462;-69
2022/05/01 04:05:40;;;;;;;14.53;12.27;;;;;;;;;;5092671;28;20474;-69
2022/05/01 04:08:08;;;;;;;14.53;10.90;;;;;;;;;;5093416;28;20867;-69
2022/05/01 04:10:36;;;;;;;14.87;11.63;;;;;;;;;;5093447;28;20471;-69
2022/05/01 04:13:03;;;;;;;12.43;11.13;;;;;;;;;;5093370;28;20990;-69
2022/05/01 04:15:30;;;;;;;14.17;10.90;;;;;;;;;;5093522;28;20839;-69
2022/05/01 04:17:58;;;;;;;14.13;11.80;;;;;;;;;;5093409;28;20501;-69
2022/05/01 04:20:26;;;;;;;13.50;11.30;;;;;;;;;;5093182;28;20573;-69
2022/05/01 04:22:53;;;;;;;12.23;10.83;;;;;;;;;;5092961;28;20498;-69
2022/05/01 04:25:21;;;;;;;12.00;10.30;;;;;;;;;;5093333;28;20504;-68
2022/05/01 04:27:51;;;;;;;13.93;11.57;;;;;;;;;;5093223;28;20951;-68
2022/05/01 04:30:20;;;;;;;12.37;10.83;;;;;;;;;;5093080;28;20505;-68
2022/05/01 04:32:48;;;;;;;11.80;10.10;;;;;;;;;;5093287;28;20447;-71
2022/05/01 04:35:20;;;;;;;13.27;11.30;;;;;;;;;;5092982;28;20999;-71
2022/05/01 04:37:47;;;;;;;14.37;11.33;;;;;;;;;;5093196;28;20520;-70
2022/05/01 04:40:15;;;;;;;11.53;10.33;;;;;;;;;;5093000;28;20493;-71
2022/05/01 04:42:42;;;;;;;13.60;11.47;;;;;;;;;;5093325;28;20492;-71
2022/05/01 04:45:11;;;;;;;17.10;10.67;;;;;;;;;;5092792;28;20447;-70
2022/05/01 04:47:38;;;;;;;19.93;11.20;;;;;;;;;;5093228;28;20466;-68
2022/05/01 04:50:06;;;;;;;12.30;10.73;;;;;;;;;;5092987;28;20995;-68
2022/05/01 04:52:36;;;;;;;14.37;10.40;;;;;;;;;;5093304;28;20458;-68
2022/05/01 04:55:03;;;;;;;14.13;10.80;;;;;;;;;;5092820;28;20454;-68
2022/05/01 04:57:30;;;;;;;11.33;9.90;;;;;;;;;;5093081;28;20454;-68
2022/05/01 04:59:57;;;;;;;13.87;11.37;;;;;;;;;;5092665;28;21010;-68
2022/05/01 05:02:26;;;;;;;13.53;11.00;;;;;;;;;;5092983;28;20804;-69
2022/05/01 05:04:53;;;;;;;13.10;9.70;;;;;;;;;;5092750;28;20493;-69
2022/05/01 05:07:20;;;;;;;11.83;9.27;;;;;;;;;;5092769;28;20446;-70
2022/05/01 05:09:55;;;;;;;11.67;9.57;;;;;;;;;;5092752;28;20474;-67
2022/05/01 05:12:23;;;;;;;10.00;9.00;;;;;;;;;;5092802;28;20450;-68
2022/05/01 05:14:51;;;;;;;13.57;10.57;;;;;;;;;;5092775;28;20471;-68
2022/05/01 05:17:19;;;;;;;10.20;9.20;;;;;;;;;;5095304;28;20462;-68
2022/05/01 05:19:47;;;;;;;12.50;10.53;;;;;;;;;;5096651;28;20536;-68
2022/05/01 05:22:15;;;;;;;11.93;10.17;;;;;;;;;;5096146;28;21026;-68
2022/05/01 05:24:42;;;;;;;14.73;10.80;;;;;;;;;;5096487;28;20881;-68
2022/05/01 05:27:09;;;;;;;19.57;9.87;;;;;;;;;;5096513;28;20454;-68
2022/05/01 05:29:36;;;;;;;11.10;8.90;;;;;;;;;;5096497;28;20478;-68
2022/05/01 05:32:04;;;;;;;12.77;9.17;;;;;;;;;;5096493;28;20970;-68
2022/05/01 05:34:31;;;;;;;10.80;8.33;;;;;;;;;;5096424;28;20931;-68
2022/05/01 05:36:59;;;;;;;12.80;11.27;;;;;;;;;;5096397;28;20970;-68
2022/05/01 05:39:26;;;;;;;10.00;9.00;;;;;;;;;;5096340;28;20470;-68
2022/05/01 05:41:53;;;;;;;9.80;8.50;;;;;;;;;;5096101;28;20500;-68
2022/05/01 05:44:20;;;;;;;12.73;9.60;;;;;;;;;;5091492;28;20470;-69
2022/05/01 05:46:48;;;;;;;13.70;11.67;;;;;;;;;;5093874;28;20442;-68
2022/05/01 05:49:15;;;;;;;12.73;10.10;;;;;;;;;;5094584;28;20473;-68
2022/05/01 05:51:42;;;;;;;11.37;10.17;;;;;;;;;;5094941;28;20500;-69
2022/05/01 05:54:10;;;;;;;11.37;9.37;;;;;;;;;;5093812;28;20458;-69
2022/05/01 05:56:37;;;;;;;10.53;9.37;;;;;;;;;;5077502;28;20844;-68
2022/05/01 05:59:04;;;;;;;10.60;9.30;;;;;;;;;;5074247;28;20868;-69
2022/05/01 06:01:31;;;;;;;13.27;9.50;;;;;;;;;;5074150;28;20487;-69
2022/05/01 06:03:59;;;;;;;10.17;8.50;;;;;;;;;;5074143;28;20451;-69
2022/05/01 06:06:26;;;;;;;11.30;9.70;;;;;;;;;;5074176;28;20451;-68
2022/05/01 06:08:53;;;;;;;10.90;9.20;;;;;;;;;;5073644;28;20467;-68
2022/05/01 06:11:21;;;;;;;9.40;8.13;;;;;;;;;;5073932;28;20451;-69
2022/05/01 06:13:48;;;;;;;14.10;8.80;;;;;;;;;;5073921;28;20448;-68
2022/05/01 06:16:15;;;;;;;9.77;8.13;;;;;;;;;;5073785;28;20458;-69
2022/05/01 06:18:42;;;;;;;12.10;9.70;;;;;;;;;;5074004;28;20472;-68
2022/05/01 06:21:10;;;;;;;12.90;9.53;;;;;;;;;;5073674;28;20490;-69
2022/05/01 06:23:37;;;;;;;9.23;8.33;;;;;;;;;;5073243;28;21056;-69
2022/05/01 06:26:07;;;;;;;10.50;8.30;;;;;;;;;;5073751;28;20456;-69
2022/05/01 06:28:35;;;;;;;14.10;9.43;;;;;;;;;;5072808;28;20463;-68
2022/05/01 06:31:05;;;;;;;10.63;8.30;;;;;;;;;;5073472;28;20452;-70
2022/05/01 06:33:32;;;;;;;9.77;8.00;;;;;;;;;;5073753;28;20873;-68
2022/05/01 06:35:59;;;;;;;9.40;8.00;;;;;;;;;;5073573;28;20451;-68
2022/05/01 06:38:26;;;;;;;9.70;8.07;;;;;;;;;;5073549;28;20455;-69
2022/05/01 06:40:54;;;;;;;7.53;6.83;;;;;;;;;;5074706;28;20515;-69
2022/05/01 06:43:21;;;;;;;8.00;7.20;;;;;;;;;;5074825;28;20458;-69
2022/05/01 06:45:49;;;;;;;8.67;7.47;;;;;;;;;;5074563;28;20455;-69
2022/05/01 06:48:16;;;;;;;9.03;7.40;;;;;;;;;;5074749;28;20455;-69
2022/05/01 06:50:43;;;;;;;8.53;7.17;;;;;;;;;;5074770;28;20479;-69
2022/05/01 06:53:11;;;;;;;9.27;8.30;;;;;;;;;;5074672;28;20459;-69
2022/05/01 06:55:38;;;;;;;11.33;9.13;;;;;;;;;;5074497;28;20452;-69
2022/05/01 06:58:05;;;;;;;13.53;6.80;;;;;;;;;;5074578;28;20451;-69
2022/05/01 07:00:32;;;;;;;9.40;7.40;;;;;;;;;;5074458;28;20476;-69
2022/05/01 07:03:00;;;;;;;14.57;11.80;;;;;;;;;;5074820;28;20968;-70
2022/05/01 07:05:28;;;;;;;9.63;7.27;;;;;;;;;;5093164;28;20477;-69
2022/05/01 07:07:55;;;;;;;14.93;8.77;;;;;;;;;;5094462;28;20465;-69
2022/05/01 07:10:23;;;;;;;14.57;10.73;;;;;;;;;;5094491;28;20527;-69
2022/05/01 07:12:50;;;;;;;11.93;10.13;;;;;;;;;;5094462;28;20505;-69
2022/05/01 07:15:18;;;;;;;9.77;8.77;;;;;;;;;;5094231;28;20450;-69
2022/05/01 07:17:45;;;;;;;8.50;7.60;;;;;;;;;;5094517;28;20956;-69
2022/05/01 07:20:14;;;;;;;9.70;7.93;;;;;;;;;;5094134;28;20498;-69
2022/05/01 07:22:41;;;;;;;7.30;6.57;;;;;;;;;;5093767;28;20486;-70
2022/05/01 07:25:09;;;;;;;8.77;7.77;;;;;;;;;;5093815;28;20454;-69
2022/05/01 07:27:36;;;;;;;10.30;8.10;;;;;;;;;;5094306;28;20948;-69
2022/05/01 07:30:03;;;;;;;9.90;8.70;;;;;;;;;;5094030;28;20482;-69
2022/05/01 07:32:30;;;;;;;10.83;9.50;;;;;;;;;;5094117;28;20458;-69
2022/05/01 07:34:58;;;;;;;14.23;11.20;;;;;;;;;;5093738;28;20805;-69
2022/05/01 07:37:26;;;;;;;13.37;10.87;;;;;;;;;;5094009;28;20943;-69
2022/05/01 07:39:54;;;;;;;16.10;12.80;;;;;;;;;;5093712;28;20462;-69
2022/05/01 07:42:23;;;;;;;16.80;12.47;;;;;;;;;;5093865;28;20501;-71
2022/05/01 07:44:50;;;;;;;15.30;12.27;;;;;;;;;;5093599;28;20865;-69
2022/05/01 07:47:17;;;;;;;14.70;12.03;;;;;;;;;;5093077;28;20462;-69
2022/05/01 07:49:44;;;;;;;12.60;11.30;;;;;;;;;;5093722;28;20482;-69
2022/05/01 07:52:12;;;;;;;19.73;11.17;;;;;;;;;;5093561;28;20462;-69
2022/05/01 07:54:40;;;;;;;13.43;12.03;;;;;;;;;;5093509;28;20788;-69
2022/05/01 07:57:08;;;;;;;14.00;12.50;;;;;;;;;;5093438;28;20458;-69
2022/05/01 07:59:35;;;;;;;23.50;18.60;;;;;;;;;;5093652;28;20881;-69
2022/05/01 08:02:03;;;;;;;26.03;18.00;;;;;;;;;;5093395;28;20493;-70
2022/05/01 08:04:29;;;;;;;19.33;16.90;;;;;;;;;;5093275;28;20824;-69
2022/05/01 08:06:56;;;;;;;20.43;16.10;;;;;;;;;;5093306;28;20451;-69
2022/05/01 08:09:25;;;;;;;21.57;15.70;;;;;;;;;;5093052;28;20475;-71
2022/05/01 08:11:54;;;;;;;20.53;17.87;;;;;;;;;;5093399;28;20558;-70
2022/05/01 08:14:21;;;;;;;25.43;17.30;;;;;;;;;;5091329;28;20458;-70
2022/05/01 08:16:49;;;;;;;24.03;18.70;;;;;;;;;;5093307;28;20819;-70
2022/05/01 08:22:01;;;;;;;23.80;17.80;;;;;;;;;;5092632;28;20498;-70
2022/05/01 08:24:28;;;;;;;24.47;18.10;;;;;;;;;;5092969;28;20473;-70
2022/05/01 08:26:56;;;;;;;25.50;19.93;;;;;;;;;;5093248;28;20450;-70
2022/05/01 08:29:24;;;;;;;25.93;20.00;;;;;;;;;;5089303;28;20475;-71
2022/05/01 08:31:51;;;;;;;28.43;22.17;;;;;;;;;;5087601;28;20451;-70
2022/05/01 08:34:19;;;;;;;31.57;23.90;;;;;;;;;;5091520;28;20453;-70
2022/05/01 08:36:46;;;;;;;26.03;20.50;;;;;;;;;;5091609;28;20470;-70
2022/05/01 08:39:14;;;;;;;27.67;18.47;;;;;;;;;;5091665;28;20474;-70
2022/05/01 08:41:41;;;;;;;29.33;19.37;;;;;;;;;;5091658;28;20876;-70
2022/05/01 08:44:13;;;;;;;24.83;18.43;;;;;;;;;;5083539;28;20467;-70
2022/05/01 08:46:46;;;;;;;34.17;20.97;;;;;;;;;;5071215;28;20813;-70
2022/05/01 08:49:16;;;;;;;28.47;17.67;;;;;;;;;;5071201;28;20476;-70
2022/05/01 08:51:44;;;;;;;28.47;20.87;;;;;;;;;;5070781;28;20491;-70
2022/05/01 08:54:12;;;;;;;26.13;19.47;;;;;;;;;;5071143;28;20944;-70
2022/05/01 08:56:40;;;;;;;27.80;20.63;;;;;;;;;;5071425;28;20466;-70
2022/05/01 08:59:10;;;;;;;27.43;18.20;;;;;;;;;;5071206;28;20566;-71
2022/05/01 09:01:38;;;;;;;23.37;19.07;;;;;;;;;;5071489;28;20494;-71
2022/05/01 09:04:06;;;;;;;23.43;18.27;;;;;;;;;;5079962;28;20458;-71
2022/05/01 09:06:34;;;;;;;21.63;18.20;;;;;;;;;;5092933;28;20482;-71
2022/05/01 09:09:05;;;;;;;24.60;19.13;;;;;;;;;;5092279;28;20470;-71
2022/05/01 09:14:18;;;;;;;22.30;17.73;;;;;;;;;;5092213;28;20489;-71
2022/05/01 09:17:07;;;;;;;21.07;16.90;;;;;;;;;;5092726;28;20450;-71
2022/05/01 09:19:34;;;;;;;26.27;16.13;;;;;;;;;;5092725;28;20482;-71
2022/05/01 09:22:02;;;;;;;19.50;16.80;;;;;;;;;;5092358;28;20486;-71
2022/05/01 09:24:30;;;;;;;22.00;17.87;;;;;;;;;;5092997;28;20512;-71
2022/05/01 09:26:57;;;;;;;24.93;19.47;;;;;;;;;;5092729;28;20443;-71
2022/05/01 09:29:31;;;;;;;23.10;17.60;;;;;;;;;;5092523;28;20479;-71
2022/05/01 09:32:00;;;;;;;20.97;16.60;;;;;;;;;;5092505;28;20936;-71
2022/05/01 09:34:29;;;;;;;22.67;18.13;;;;;;;;;;5092156;28;20508;-70
2022/05/01 09:36:57;;;;;;;26.33;17.87;;;;;;;;;;5090966;28;20451;-71
2022/05/01 09:39:26;;;;;;;21.53;15.90;;;;;;;;;;5091366;28;20557;-71
2022/05/01 09:41:54;;;;;;;22.23;17.80;;;;;;;;;;5092627;28;20513;-71
2022/05/01 09:44:22;;;;;;;20.60;17.27;;;;;;;;;;5092931;28;20830;-71
2022/05/01 09:46:51;;;;;;;19.70;16.77;;;;;;;;;;5092526;28;20442;-71
2022/05/01 09:49:19;;;;;;;19.17;15.23;;;;;;;;;;5092365;28;20829;-71
2022/05/01 09:51:47;;;;;;;18.63;16.63;;;;;;;;;;5092487;28;20863;-71
2022/05/01 09:54:21;;;;;;;20.80;16.10;;;;;;;;;;5092101;28;20454;-70
2022/05/01 09:56:48;;;;;;;20.60;15.13;;;;;;;;;;5092389;28;20545;-71
2022/05/01 09:59:16;;;;;;;20.27;15.93;;;;;;;;;;5092122;28;20474;-71
2022/05/01 10:01:56;;;;;;;22.97;16.87;;;;;;;;;;5092516;28;20478;-71
2022/05/01 10:04:24;;;;;;;18.67;16.60;;;;;;;;;;5094906;28;20454;-72
2022/05/01 10:06:52;;;;;;;20.17;15.77;;;;;;;;;;5096078;28;20512;-73
2022/05/01 10:09:20;;;;;;;19.30;15.60;;;;;;;;;;5095875;28;21056;-73
2022/05/01 10:11:48;;;;;;;19.33;16.93;;;;;;;;;;5095868;28;20477;-73
2022/05/01 10:14:15;;;;;;;19.83;16.67;;;;;;;;;;5095489;28;20455;-71
2022/05/01 10:16:43;;;;;;;18.93;15.17;;;;;;;;;;5095591;28;20492;-71
2022/05/01 10:19:12;;;;;;;21.50;15.87;;;;;;;;;;5095458;28;20466;-71
2022/05/01 10:21:39;;;;;;;19.70;15.77;;;;;;;;;;5095146;28;20462;-71
2022/05/01 10:24:06;;;;;;;22.37;16.40;;;;;;;;;;5095182;28;20470;-71
2022/05/01 10:26:36;;;;;;;17.67;15.30;;;;;;;;;;5095447;28;20451;-71
2022/05/01 10:29:31;;;;;;;20.30;16.33;;;;;;;;;;5095315;28;20478;-71
2022/05/01 10:32:22;;;;;;;18.40;14.80;;;;;;;;;;5095359;28;20451;-71
2022/05/01 10:35:01;;;;;;;17.10;14.13;;;;;;;;;;5095187;28;20924;-71
2022/05/01 10:37:35;;;;;;;16.17;14.40;;;;;;;;;;5095221;28;20446;-71
2022/05/01 10:40:02;;;;;;;16.33;14.63;;;;;;;;;;5095491;28;20477;-71
2022/05/01 10:42:33;;;;;;;16.80;13.97;;;;;;;;;;5095255;28;20482;-71
2022/05/01 10:45:00;;;;;;;15.20;12.30;;;;;;;;;;5094902;28;20520;-71
2022/05/01 10:47:36;;;;;;;15.50;13.10;;;;;;;;;;5095099;28;20833;-71
2022/05/01 10:50:08;;;;;;;21.27;13.93;;;;;;;;;;5094939;28;20998;-71
2022/05/01 10:52:35;;;;;;;15.27;12.80;;;;;;;;;;5095156;28;20483;-72
2022/05/01 10:55:05;;;;;;;13.43;12.00;;;;;;;;;;5094764;28;20473;-72
2022/05/01 10:57:32;;;;;;;14.10;12.30;;;;;;;;;;5094891;28;20451;-71
2022/05/01 11:00:05;;;;;;;13.50;12.07;;;;;;;;;;5094731;28;20473;-72
2022/05/01 11:02:39;;;;;;;17.00;11.90;;;;;;;;;;5094871;28;20478;-72
2022/05/01 11:05:08;;;;;;;14.60;11.97;;;;;;;;;;5094640;28;20504;-72
2022/05/01 11:07:39;;;;;;;12.27;10.70;;;;;;;;;;5094768;28;20453;-71
2022/05/01 11:10:07;;;;;;;13.47;10.70;;;;;;;;;;5094689;28;21003;-72
2022/05/01 11:12:34;;;;;;;12.07;10.77;;;;;;;;;;5094751;28;20462;-72
2022/05/01 11:15:02;;;;;;;15.03;11.77;;;;;;;;;;5093724;28;20462;-71
2022/05/01 11:17:50;;;;;;;13.90;12.00;;;;;;;;;;5094553;28;20453;-71
2022/05/01 11:20:32;;;;;;;12.57;11.27;;;;;;;;;;5094308;28;20462;-72
2022/05/01 11:23:00;;;;;;;13.07;11.60;;;;;;;;;;5093958;28;20487;-72
2022/05/01 11:25:33;;;;;;;14.77;12.07;;;;;;;;;;5094279;28;20501;-72
2022/05/01 11:28:01;;;;;;;11.80;10.23;;;;;;;;;;5094155;28;20457;-71
2022/05/01 11:30:35;;;;;;;11.10;10.10;;;;;;;;;;5094342;28;20463;-72
2022/05/01 11:33:02;;;;;;;12.10;10.27;;;;;;;;;;5094092;28;20457;-72
2022/05/01 11:35:44;;;;;;;11.57;10.33;;;;;;;;;;5094004;28;20955;-72
2022/05/01 11:38:13;;;;;;;11.20;9.10;;;;;;;;;;5093704;28;20450;-72
2022/05/01 11:40:53;;;;;;;10.13;8.93;;;;;;;;;;5093940;28;20463;-72
2022/05/01 11:43:21;;;;;;;13.63;9.07;;;;;;;;;;5093877;28;20489;-72
2022/05/01 11:45:49;;;;;;;10.60;7.90;;;;;;;;;;5093850;28;20450;-72
2022/05/01 11:48:17;;;;;;;9.70;8.40;;;;;;;;;;5093782;28;20462;-72
2022/05/01 11:50:44;;;;;;;9.70;8.50;;;;;;;;;;5094037;28;20467;-72
2022/05/01 11:53:19;;;;;;;9.13;8.23;;;;;;;;;;5093789;28;20447;-72
2022/05/01 12:04:02;;;;;;;9.17;8.33;;;;;;;;;;5093463;28;20481;-72
2022/05/01 12:06:30;;;;;;;8.23;7.17;;;;;;;;;;5093765;28;20462;-72
2022/05/01 12:08:58;;;;;;;8.57;7.67;;;;;;;;;;5093643;28;20923;-72
2022/05/01 12:11:29;;;;;;;8.70;7.70;;;;;;;;;;5093761;28;20454;-72
2022/05/01 12:14:07;;;;;;;7.63;6.87;;;;;;;;;;5093487;28;20454;-72
2022/05/01 12:16:34;;;;;;;9.77;8.53;;;;;;;;;;5093625;28;20446;-72
2022/05/01 12:19:03;;;;;;;8.47;7.57;;;;;;;;;;5093375;28;20525;-72
2022/05/01 12:21:31;;;;;;;10.30;9.30;;;;;;;;;;5093561;28;20457;-72
2022/05/01 12:24:03;;;;;;;8.53;7.63;;;;;;;;;;5092717;28;20491;-72
2022/05/01 12:26:32;;;;;;;9.70;8.70;;;;;;;;;;5092716;28;20457;-72
2022/05/01 12:28:59;;;;;;;8.63;7.83;;;;;;;;;;5093291;28;20698;-73
2022/05/01 12:31:26;;;;;;;9.43;8.53;;;;;;;;;;5093375;28;20825;-72
2022/05/01 12:33:53;;;;;;;9.63;8.73;;;;;;;;;;5093152;28;20443;-72
2022/05/01 12:36:24;;;;;;;9.90;8.63;;;;;;;;;;5093412;28;20453;-72
2022/05/01 12:39:01;;;;;;;9.67;8.77;;;;;;;;;;5093331;28;20884;-72
2022/05/01 12:44:14;;;;;;;10.23;9.23;;;;;;;;;;5092978;28;20485;-72
2022/05/01 12:46:52;;;;;;;11.60;10.40;;;;;;;;;;5093325;28;20445;-72
2022/05/01 12:49:26;;;;;;;10.60;9.70;;;;;;;;;;5093106;28;20470;-72
2022/05/01 12:51:53;;;;;;;9.27;8.47;;;;;;;;;;5093157;28;20485;-72
2022/05/01 12:54:20;;;;;;;11.17;10.07;;;;;;;;;;5092901;28;20963;-72
2022/05/01 12:56:49;;;;;;;11.03;9.93;;;;;;;;;;5093135;28;20450;-72
2022/05/01 12:59:27;;;;;;;10.80;9.70;;;;;;;;;;5093122;28;20469;-72
2022/05/01 13:01:55;;;;;;;10.33;9.23;;;;;;;;;;5093116;28;20869;-72
2022/05/01 13:04:24;;;;;;;12.10;10.90;;;;;;;;;;5092577;28;20850;-72
2022/05/01 13:06:51;;;;;;;11.20;9.43;;;;;;;;;;5092985;28;20458;-72
2022/05/01 13:09:18;;;;;;;11.80;10.60;;;;;;;;;;5092976;28;20471;-72
2022/05/01 13:12:00;;;;;;;12.20;11.00;;;;;;;;;;5093021;28;20454;-72
2022/05/01 13:14:30;;;;;;;15.63;12.17;;;;;;;;;;5092808;28;20939;-72
2022/05/01 13:17:07;;;;;;;11.23;10.13;;;;;;;;;;5092876;28;20549;-72
2022/05/01 13:19:34;;;;;;;13.53;12.20;;;;;;;;;;5092963;28;20466;-72
2022/05/01 13:22:01;;;;;;;12.43;11.13;;;;;;;;;;5092413;28;20461;-72
2022/05/01 13:24:30;;;;;;;16.87;11.90;;;;;;;;;;5092566;28;20859;-72
2022/05/01 13:27:01;;;;;;;17.03;14.73;;;;;;;;;;5092684;28;20552;-72
2022/05/01 13:29:31;;;;;;;16.33;13.07;;;;;;;;;;5092997;28;20483;-72
2022/05/01 13:31:59;;;;;;;16.97;12.27;;;;;;;;;;5092935;28;20451;-72
2022/05/01 13:34:26;;;;;;;12.40;11.10;;;;;;;;;;5092551;28;20504;-72
2022/05/01 13:36:54;;;;;;;19.60;12.50;;;;;;;;;;5093170;28;20907;-72
2022/05/01 13:39:21;;;;;;;18.20;11.67;;;;;;;;;;5097107;28;20478;-72
2022/05/01 13:44:48;;;;;;;16.40;12.80;;;;;;;;;;5096335;28;20501;-72
2022/05/01 13:47:16;;;;;;;13.03;11.10;;;;;;;;;;5096437;28;20450;-72
2022/05/01 13:49:44;;;;;;;12.10;10.90;;;;;;;;;;5096321;28;20470;-72
2022/05/01 13:52:11;;;;;;;12.33;10.27;;;;;;;;;;5096245;28;20481;-72
2022/05/01 13:54:38;;;;;;;14.30;12.13;;;;;;;;;;5096113;28;20442;-72
2022/05/01 13:57:06;;;;;;;11.70;10.23;;;;;;;;;;5096228;28;20489;-72
2022/05/01 13:59:34;;;;;;;10.53;9.50;;;;;;;;;;5096260;28;20482;-72
2022/05/01 14:02:02;;;;;;;12.90;10.87;;;;;;;;;;5096063;28;20512;-72
2022/05/01 14:04:29;;;;;;;12.43;11.23;;;;;;;;;;5095983;28;20491;-72
2022/05/01 14:06:57;;;;;;;12.07;10.70;;;;;;;;;;5096092;28;20446;-72
2022/05/01 14:09:24;;;;;;;11.87;10.70;;;;;;;;;;5096048;28;20506;-72
2022/05/01 14:11:52;;;;;;;12.13;10.80;;;;;;;;;;5096092;28;20462;-72
2022/05/01 14:14:19;;;;;;;13.57;12.17;;;;;;;;;;5095826;28;20435;-72
2022/05/01 14:16:48;;;;;;;12.53;11.07;;;;;;;;;;5095868;28;20451;-72
2022/05/01 14:19:18;;;;;;;14.50;12.13;;;;;;;;;;5095767;28;20486;-72
2022/05/01 14:21:47;;;;;;;13.27;11.50;;;;;;;;;;5095514;28;20463;-72
2022/05/01 14:24:15;;;;;;;12.20;10.97;;;;;;;;;;5095357;28;20497;-72
2022/05/01 14:26:42;;;;;;;13.57;11.40;;;;;;;;;;5095690;28;20447;-72
2022/05/01 14:29:09;;;;;;;14.80;11.30;;;;;;;;;;5095664;28;20479;-72
2022/05/01 14:31:40;;;;;;;12.40;11.10;;;;;;;;;;5095622;28;20451;-72
2022/05/01 14:34:17;;;;;;;11.93;10.70;;;;;;;;;;5095164;28;20451;-72
2022/05/01 14:36:46;;;;;;;14.57;13.07;;;;;;;;;;5095611;28;20453;-72
2022/05/01 14:39:15;;;;;;;13.67;12.27;;;;;;;;;;5095475;28;20547;-72
2022/05/01 14:41:43;;;;;;;13.03;11.17;;;;;;;;;;5095360;28;20459;-72
2022/05/01 14:44:11;;;;;;;13.27;10.80;;;;;;;;;;5095032;28;20551;-72
2022/05/01 14:46:41;;;;;;;12.27;11.07;;;;;;;;;;5095366;28;20831;-72
2022/05/01 14:49:20;;;;;;;11.03;9.93;;;;;;;;;;5094401;28;20471;-72
2022/05/01 14:51:47;;;;;;;12.50;11.20;;;;;;;;;;5095411;28;20446;-72
2022/05/01 14:54:16;;;;;;;12.57;11.37;;;;;;;;;;5094913;28;20457;-72
2022/05/01 14:56:43;;;;;;;11.60;10.50;;;;;;;;;;5095192;28;20459;-72
2022/05/01 15:07:29;;;;;;;14.90;12.10;;;;;;;;;;5095014;28;20468;-72